WZZ2615 UUEE-LGKR
Flight info
| Callsign | WZZ2615 |
|---|---|
| Flight time | 3h 10m |
| Altitude | 36000 |
| Route | LIDRI3H LIDRI T781 REPNU N858 VEPIS DCT TOSPO/N0447F360 Z367 KEFIR DCT KEKED DCT PARAK/N0447F370 DCT PIVEX DCT ALELU/N0445F360 DCT RINAV/N0447F370 DCT PITAS |
| Aircraft | A21N/M-SDE3FGHIRWY/LB1 |
Departure
| Time | 2026-05-04 16:05 |
|---|---|
| Airport | Sheremetyevo International Airport (UUEE) |
Arrival
| Time | 2026-05-04 19:16 |
|---|---|
| Airport | Corfu Ioannis Kapodistrias International Airport (LGKR) |
| Time | Latitude | Longitude | Altitude | Speed | Heading |
|---|---|---|---|---|---|
| 2026-05-04 15:45 | 55.97843 | 37.41232 | 622 ft | 0 kts | 255° |
| 2026-05-04 15:55 | 55.97845 | 37.41246 | 622 ft | 2 kts | 255° |
| 2026-05-04 15:55 | 55.97849 | 37.41271 | 622 ft | 2 kts | 254° |
| 2026-05-04 15:56 | 55.97853 | 37.41296 | 623 ft | 2 kts | 254° |
| 2026-05-04 15:56 | 55.97857 | 37.41321 | 622 ft | 2 kts | 254° |
| 2026-05-04 15:56 | 55.97860 | 37.41344 | 622 ft | 0 kts | 255° |
| 2026-05-04 15:56 | 55.97864 | 37.41364 | 622 ft | 2 kts | 230° |
| 2026-05-04 15:57 | 55.97876 | 37.41380 | 622 ft | 2 kts | 199° |
| 2026-05-04 15:57 | 55.97890 | 37.41383 | 622 ft | 0 kts | 169° |
| 2026-05-04 15:57 | 55.97896 | 37.41380 | 622 ft | 1 kts | 163° |
| 2026-05-04 15:57 | 55.97898 | 37.41379 | 622 ft | 0 kts | 165° |
| 2026-05-04 16:00 | 55.97895 | 37.41381 | 622 ft | 0 kts | 165° |
| 2026-05-04 16:00 | 55.97886 | 37.41385 | 622 ft | 1 kts | 165° |
| 2026-05-04 16:00 | 55.97873 | 37.41391 | 622 ft | 2 kts | 165° |
| 2026-05-04 16:01 | 55.97856 | 37.41398 | 622 ft | 3 kts | 166° |
| 2026-05-04 16:01 | 55.97828 | 37.41410 | 622 ft | 4 kts | 166° |
| 2026-05-04 16:01 | 55.97789 | 37.41427 | 622 ft | 6 kts | 166° |
| 2026-05-04 16:01 | 55.97725 | 37.41454 | 622 ft | 12 kts | 167° |
| 2026-05-04 16:02 | 55.97671 | 37.41557 | 621 ft | 12 kts | 134° |
| 2026-05-04 16:02 | 55.97602 | 37.41632 | 620 ft | 11 kts | 96° |
| 2026-05-04 16:02 | 55.97644 | 37.41960 | 616 ft | 15 kts | 75° |
| 2026-05-04 16:03 | 55.97672 | 37.42159 | 613 ft | 17 kts | 75° |
| 2026-05-04 16:03 | 55.97704 | 37.42370 | 612 ft | 17 kts | 78° |
| 2026-05-04 16:03 | 55.97739 | 37.42590 | 611 ft | 18 kts | 74° |
| 2026-05-04 16:03 | 55.97747 | 37.42772 | 608 ft | 14 kts | 133° |
| 2026-05-04 16:04 | 55.97649 | 37.42831 | 606 ft | 15 kts | 166° |
| 2026-05-04 16:04 | 55.97580 | 37.42694 | 608 ft | 7 kts | 255° |
| 2026-05-04 16:04 | 55.97502 | 37.42176 | 613 ft | 78 kts | 255° |
| 2026-05-04 16:05 | 55.97309 | 37.40871 | 619 ft | 138 kts | 255° |
| 2026-05-04 16:05 | 55.97022 | 37.38944 | 789 ft | 171 kts | 256° |
| 2026-05-04 16:05 | 55.96429 | 37.35032 | 2305 ft | 161 kts | 254° |
| 2026-05-04 16:06 | 55.96113 | 37.33123 | 2708 ft | 169 kts | 253° |
| 2026-05-04 16:06 | 55.95142 | 37.27102 | 3492 ft | 211 kts | 255° |
| 2026-05-04 16:07 | 55.94582 | 37.23541 | 3862 ft | 237 kts | 255° |
| 2026-05-04 16:07 | 55.93169 | 37.14579 | 5710 ft | 257 kts | 255° |
| 2026-05-04 16:08 | 55.92693 | 37.11565 | 6424 ft | 260 kts | 255° |
| 2026-05-04 16:08 | 55.91250 | 37.02162 | 8608 ft | 268 kts | 260° |
| 2026-05-04 16:09 | 55.91002 | 36.95548 | 9967 ft | 274 kts | 271° |
| 2026-05-04 16:09 | 55.91078 | 36.88716 | 11299 ft | 279 kts | 271° |
| 2026-05-04 16:10 | 55.91148 | 36.81809 | 12539 ft | 284 kts | 271° |
| 2026-05-04 16:11 | 55.90590 | 36.71358 | 14049 ft | 302 kts | 258° |
| 2026-05-04 16:11 | 55.90078 | 36.67635 | 14307 ft | 316 kts | 257° |
| 2026-05-04 16:12 | 55.88386 | 36.55704 | 15428 ft | 342 kts | 257° |
| 2026-05-04 16:12 | 55.86650 | 36.43347 | 17030 ft | 348 kts | 259° |
| 2026-05-04 16:13 | 55.85615 | 36.34845 | 18027 ft | 353 kts | 259° |
| 2026-05-04 16:13 | 55.84581 | 36.26328 | 18999 ft | 358 kts | 258° |
| 2026-05-04 16:14 | 55.83511 | 36.17630 | 19914 ft | 363 kts | 258° |
| 2026-05-04 16:14 | 55.82420 | 36.08872 | 20767 ft | 368 kts | 258° |
| 2026-05-04 16:15 | 55.80730 | 35.95458 | 22001 ft | 375 kts | 258° |
| 2026-05-04 16:16 | 55.79577 | 35.86451 | 22810 ft | 379 kts | 258° |
| 2026-05-04 16:16 | 55.77808 | 35.72726 | 23954 ft | 385 kts | 258° |
| 2026-05-04 16:17 | 55.76600 | 35.63439 | 24655 ft | 389 kts | 258° |
| 2026-05-04 16:18 | 55.75171 | 35.49233 | 25667 ft | 395 kts | 265° |
| 2026-05-04 16:18 | 55.74946 | 35.44355 | 25990 ft | 397 kts | 266° |
| 2026-05-04 16:19 | 55.74310 | 35.29675 | 26903 ft | 402 kts | 265° |
| 2026-05-04 16:19 | 55.73873 | 35.19817 | 27492 ft | 405 kts | 265° |
| 2026-05-04 16:20 | 55.73189 | 35.04839 | 28333 ft | 411 kts | 265° |
| 2026-05-04 16:20 | 55.72725 | 34.94699 | 28884 ft | 414 kts | 265° |
| 2026-05-04 16:21 | 55.72014 | 34.79445 | 29657 ft | 419 kts | 265° |
| 2026-05-04 16:22 | 55.71509 | 34.69218 | 30177 ft | 421 kts | 264° |
| 2026-05-04 16:22 | 55.69830 | 34.53931 | 31060 ft | 421 kts | 255° |
| 2026-05-04 16:23 | 55.66987 | 34.39338 | 31960 ft | 420 kts | 251° |
| 2026-05-04 16:24 | 55.62990 | 34.20045 | 33153 ft | 418 kts | 251° |
| 2026-05-04 16:25 | 55.60979 | 34.10407 | 33720 ft | 417 kts | 251° |
| 2026-05-04 16:26 | 55.56974 | 33.91352 | 34649 ft | 418 kts | 251° |
| 2026-05-04 16:26 | 55.53915 | 33.76909 | 35161 ft | 421 kts | 251° |
| 2026-05-04 16:27 | 55.51866 | 33.67218 | 35484 ft | 422 kts | 252° |
| 2026-05-04 16:28 | 55.49487 | 33.52312 | 35878 ft | 424 kts | 257° |
| 2026-05-04 16:29 | 55.44353 | 33.17279 | 35898 ft | 424 kts | 256° |
| 2026-05-04 16:31 | 55.40621 | 32.92268 | 35896 ft | 424 kts | 256° |
| 2026-05-04 16:32 | 55.36080 | 32.62359 | 35888 ft | 424 kts | 256° |
| 2026-05-04 16:33 | 55.33005 | 32.42411 | 35879 ft | 424 kts | 256° |
| 2026-05-04 16:34 | 55.30686 | 32.27521 | 35879 ft | 423 kts | 255° |
| 2026-05-04 16:35 | 55.25979 | 31.97704 | 35884 ft | 424 kts | 255° |
| 2026-05-04 16:36 | 55.23603 | 31.82858 | 35878 ft | 424 kts | 255° |
| 2026-05-04 16:37 | 55.21204 | 31.67987 | 35872 ft | 423 kts | 255° |
| 2026-05-04 16:38 | 55.17991 | 31.48276 | 35874 ft | 422 kts | 255° |
| 2026-05-04 16:39 | 55.13924 | 31.23627 | 35861 ft | 422 kts | 254° |
| 2026-05-04 16:40 | 55.10444 | 31.04046 | 35858 ft | 424 kts | 249° |
| 2026-05-04 16:41 | 55.03474 | 30.81626 | 35870 ft | 424 kts | 239° |
| 2026-05-04 16:43 | 54.95589 | 30.60085 | 35867 ft | 424 kts | 239° |
| 2026-05-04 16:43 | 54.90822 | 30.47155 | 35869 ft | 424 kts | 239° |
| 2026-05-04 16:45 | 54.81285 | 30.21490 | 35877 ft | 425 kts | 238° |
| 2026-05-04 16:46 | 54.73250 | 30.00073 | 35884 ft | 425 kts | 238° |
| 2026-05-04 16:47 | 54.66808 | 29.83033 | 35884 ft | 425 kts | 238° |
| 2026-05-04 16:48 | 54.60358 | 29.66089 | 35883 ft | 425 kts | 238° |
| 2026-05-04 16:49 | 54.53869 | 29.49162 | 35889 ft | 425 kts | 238° |
| 2026-05-04 16:50 | 54.47360 | 29.32297 | 35884 ft | 425 kts | 237° |
| 2026-05-04 16:51 | 54.42448 | 29.19642 | 35882 ft | 425 kts | 237° |
| 2026-05-04 16:52 | 54.35900 | 29.02878 | 35878 ft | 425 kts | 237° |
| 2026-05-04 16:53 | 54.30969 | 28.90322 | 35887 ft | 426 kts | 237° |
| 2026-05-04 16:54 | 54.24332 | 28.73531 | 35902 ft | 426 kts | 237° |
| 2026-05-04 16:55 | 54.14393 | 28.48587 | 35919 ft | 426 kts | 237° |
| 2026-05-04 16:56 | 54.06030 | 28.27793 | 35924 ft | 427 kts | 236° |
| 2026-05-04 16:57 | 54.00992 | 28.15348 | 35927 ft | 428 kts | 236° |
| 2026-05-04 16:58 | 53.94255 | 27.98804 | 35918 ft | 428 kts | 236° |
| 2026-05-04 17:00 | 53.84105 | 27.74078 | 35918 ft | 428 kts | 236° |
| 2026-05-04 17:01 | 53.75600 | 27.53547 | 35911 ft | 429 kts | 236° |
| 2026-05-04 17:02 | 53.68760 | 27.37153 | 35918 ft | 429 kts | 236° |
| 2026-05-04 17:03 | 53.63598 | 27.24860 | 35916 ft | 428 kts | 235° |
| 2026-05-04 17:03 | 53.58430 | 27.12605 | 35926 ft | 430 kts | 235° |
| 2026-05-04 17:04 | 53.51527 | 26.96329 | 35925 ft | 429 kts | 235° |
| 2026-05-04 17:05 | 53.44590 | 26.80079 | 35932 ft | 431 kts | 235° |
| 2026-05-04 17:06 | 53.39353 | 26.67882 | 35933 ft | 431 kts | 236° |
| 2026-05-04 17:07 | 53.34693 | 26.57075 | 35940 ft | 431 kts | 236° |
| 2026-05-04 17:07 | 53.30611 | 26.47648 | 35935 ft | 430 kts | 235° |
| 2026-05-04 17:08 | 53.25362 | 26.35578 | 35941 ft | 431 kts | 235° |
| 2026-05-04 17:09 | 53.21846 | 26.27528 | 35936 ft | 431 kts | 234° |
| 2026-05-04 17:09 | 53.18312 | 26.19458 | 35944 ft | 432 kts | 234° |
| 2026-05-04 17:10 | 53.09480 | 25.99404 | 35945 ft | 432 kts | 234° |
| 2026-05-04 17:11 | 53.05931 | 25.91390 | 35944 ft | 432 kts | 234° |
| 2026-05-04 17:12 | 53.00588 | 25.79373 | 35952 ft | 432 kts | 234° |
| 2026-05-04 17:13 | 52.91684 | 25.59478 | 35953 ft | 432 kts | 235° |
| 2026-05-04 17:14 | 52.84530 | 25.43597 | 35950 ft | 433 kts | 235° |
| 2026-05-04 17:15 | 52.79134 | 25.31688 | 35952 ft | 433 kts | 234° |
| 2026-05-04 17:16 | 52.71927 | 25.15870 | 35944 ft | 433 kts | 234° |
| 2026-05-04 17:17 | 52.64704 | 25.00113 | 35935 ft | 434 kts | 234° |
| 2026-05-04 17:18 | 52.57425 | 24.84327 | 35937 ft | 435 kts | 234° |
| 2026-05-04 17:19 | 52.50102 | 24.68550 | 35939 ft | 435 kts | 234° |
| 2026-05-04 17:20 | 52.42779 | 24.52868 | 35946 ft | 436 kts | 234° |
| 2026-05-04 17:20 | 52.37254 | 24.41098 | 35953 ft | 436 kts | 234° |
| 2026-05-04 17:21 | 52.29886 | 24.25487 | 35953 ft | 435 kts | 234° |
| 2026-05-04 17:22 | 52.26206 | 24.17727 | 35953 ft | 435 kts | 234° |
| 2026-05-04 17:23 | 52.18789 | 24.02151 | 35957 ft | 436 kts | 234° |
| 2026-05-04 17:24 | 52.13207 | 23.90491 | 35962 ft | 436 kts | 234° |
| 2026-05-04 17:25 | 52.05650 | 23.75099 | 35965 ft | 438 kts | 229° |
| 2026-05-04 17:26 | 51.96097 | 23.62976 | 35954 ft | 442 kts | 211° |
| 2026-05-04 17:27 | 51.81982 | 23.52939 | 35952 ft | 445 kts | 205° |
| 2026-05-04 17:28 | 51.70618 | 23.45144 | 35960 ft | 447 kts | 205° |
| 2026-05-04 17:29 | 51.53484 | 23.33455 | 35966 ft | 448 kts | 205° |
| 2026-05-04 17:31 | 51.39171 | 23.23759 | 35973 ft | 449 kts | 205° |
| 2026-05-04 17:32 | 51.24789 | 23.14085 | 35965 ft | 450 kts | 205° |
| 2026-05-04 17:33 | 51.13267 | 23.06380 | 35973 ft | 452 kts | 205° |
| 2026-05-04 17:34 | 51.01692 | 22.98687 | 35972 ft | 452 kts | 205° |
| 2026-05-04 17:35 | 50.87239 | 22.89135 | 35979 ft | 452 kts | 205° |
| 2026-05-04 17:36 | 50.81484 | 22.85348 | 35979 ft | 452 kts | 204° |
| 2026-05-04 17:36 | 50.75656 | 22.81525 | 35986 ft | 453 kts | 204° |
| 2026-05-04 17:37 | 50.69854 | 22.77728 | 35990 ft | 453 kts | 204° |
| 2026-05-04 17:37 | 50.64044 | 22.73938 | 35986 ft | 454 kts | 204° |
| 2026-05-04 17:38 | 50.58226 | 22.70153 | 35986 ft | 453 kts | 204° |
| 2026-05-04 17:38 | 50.52405 | 22.66375 | 35987 ft | 454 kts | 204° |
| 2026-05-04 17:39 | 50.43709 | 22.60750 | 35990 ft | 455 kts | 204° |
| 2026-05-04 17:39 | 50.37864 | 22.56981 | 35996 ft | 455 kts | 204° |
| 2026-05-04 17:40 | 50.32009 | 22.53216 | 35994 ft | 455 kts | 204° |
| 2026-05-04 17:40 | 50.26155 | 22.49462 | 35998 ft | 456 kts | 204° |
| 2026-05-04 17:41 | 50.20324 | 22.45733 | 36002 ft | 456 kts | 204° |
| 2026-05-04 17:41 | 50.14458 | 22.41993 | 36000 ft | 456 kts | 204° |
| 2026-05-04 17:42 | 50.08605 | 22.38270 | 36005 ft | 456 kts | 204° |
| 2026-05-04 17:42 | 50.02766 | 22.34565 | 36007 ft | 457 kts | 203° |
| 2026-05-04 17:43 | 49.96865 | 22.30830 | 36011 ft | 457 kts | 203° |
| 2026-05-04 17:43 | 49.91026 | 22.27145 | 36011 ft | 457 kts | 203° |
| 2026-05-04 17:44 | 49.85134 | 22.23437 | 36018 ft | 457 kts | 203° |
| 2026-05-04 17:44 | 49.79248 | 22.19742 | 36024 ft | 458 kts | 203° |
| 2026-05-04 17:45 | 49.73364 | 22.16057 | 36026 ft | 458 kts | 203° |
| 2026-05-04 17:45 | 49.67492 | 22.12390 | 36034 ft | 458 kts | 203° |
| 2026-05-04 17:46 | 49.61584 | 22.08710 | 36038 ft | 458 kts | 204° |
| 2026-05-04 17:46 | 49.55682 | 22.05040 | 36043 ft | 458 kts | 203° |
| 2026-05-04 17:47 | 49.49802 | 22.01394 | 36046 ft | 459 kts | 203° |
| 2026-05-04 17:47 | 49.43879 | 21.97731 | 36053 ft | 459 kts | 203° |
| 2026-05-04 17:48 | 49.37997 | 21.94105 | 36056 ft | 459 kts | 203° |
| 2026-05-04 17:48 | 49.32197 | 21.90072 | 36059 ft | 458 kts | 208° |
| 2026-05-04 17:49 | 49.26526 | 21.85675 | 36065 ft | 459 kts | 208° |
| 2026-05-04 17:49 | 49.20845 | 21.81283 | 36057 ft | 458 kts | 208° |
| 2026-05-04 17:50 | 49.15168 | 21.76904 | 36054 ft | 459 kts | 208° |
| 2026-05-04 17:50 | 49.09483 | 21.72530 | 36055 ft | 459 kts | 208° |
| 2026-05-04 17:51 | 49.03762 | 21.68138 | 36055 ft | 460 kts | 208° |
| 2026-05-04 17:51 | 48.98063 | 21.63779 | 36055 ft | 460 kts | 208° |
| 2026-05-04 17:52 | 48.92349 | 21.59418 | 36056 ft | 460 kts | 208° |
| 2026-05-04 17:52 | 48.86663 | 21.55091 | 36047 ft | 460 kts | 208° |
| 2026-05-04 17:53 | 48.80775 | 21.51325 | 36051 ft | 461 kts | 202° |
| 2026-05-04 17:53 | 48.74781 | 21.48021 | 36048 ft | 461 kts | 202° |
| 2026-05-04 17:54 | 48.68786 | 21.44692 | 36042 ft | 461 kts | 202° |
| 2026-05-04 17:54 | 48.62766 | 21.41320 | 36046 ft | 462 kts | 202° |
| 2026-05-04 17:55 | 48.56742 | 21.37939 | 36043 ft | 461 kts | 202° |
| 2026-05-04 17:55 | 48.50761 | 21.34588 | 36044 ft | 462 kts | 201° |
| 2026-05-04 17:56 | 48.44721 | 21.31210 | 36043 ft | 462 kts | 201° |
| 2026-05-04 17:56 | 48.38734 | 21.27871 | 36046 ft | 463 kts | 201° |
| 2026-05-04 17:57 | 48.32717 | 21.24523 | 36044 ft | 463 kts | 201° |
| 2026-05-04 17:57 | 48.27132 | 21.21421 | 36041 ft | 463 kts | 201° |
| 2026-05-04 17:58 | 48.21232 | 21.18152 | 36047 ft | 464 kts | 201° |
| 2026-05-04 17:58 | 48.15163 | 21.14801 | 36044 ft | 464 kts | 201° |
| 2026-05-04 17:59 | 48.09118 | 21.11470 | 36044 ft | 464 kts | 201° |
| 2026-05-04 18:00 | 48.00085 | 21.06509 | 36041 ft | 464 kts | 201° |
| 2026-05-04 18:00 | 47.94012 | 21.03182 | 36042 ft | 465 kts | 201° |
| 2026-05-04 18:01 | 47.87948 | 20.99869 | 36045 ft | 465 kts | 201° |
| 2026-05-04 18:01 | 47.81846 | 20.96543 | 36049 ft | 465 kts | 201° |
| 2026-05-04 18:02 | 47.72769 | 20.91614 | 36048 ft | 465 kts | 201° |
| 2026-05-04 18:02 | 47.66663 | 20.88309 | 36056 ft | 465 kts | 201° |
| 2026-05-04 18:03 | 47.60600 | 20.85035 | 36060 ft | 463 kts | 201° |
| 2026-05-04 18:03 | 47.54697 | 20.81853 | 36063 ft | 463 kts | 201° |
| 2026-05-04 18:04 | 47.48795 | 20.78679 | 36066 ft | 464 kts | 201° |
| 2026-05-04 18:05 | 47.39688 | 20.73798 | 36063 ft | 464 kts | 201° |
| 2026-05-04 18:05 | 47.33615 | 20.70554 | 36067 ft | 464 kts | 201° |
| 2026-05-04 18:06 | 47.24524 | 20.65711 | 36064 ft | 464 kts | 201° |
| 2026-05-04 18:06 | 47.18445 | 20.62484 | 36066 ft | 465 kts | 201° |
| 2026-05-04 18:07 | 47.12329 | 20.59244 | 36064 ft | 466 kts | 201° |
| 2026-05-04 18:07 | 47.06244 | 20.56026 | 36063 ft | 466 kts | 201° |
| 2026-05-04 18:08 | 47.00162 | 20.52819 | 36063 ft | 465 kts | 201° |
| 2026-05-04 18:08 | 46.94086 | 20.49622 | 36063 ft | 466 kts | 201° |
| 2026-05-04 18:09 | 46.81886 | 20.43231 | 36062 ft | 466 kts | 201° |
| 2026-05-04 18:10 | 46.75759 | 20.40031 | 36066 ft | 467 kts | 201° |
| 2026-05-04 18:10 | 46.69650 | 20.36850 | 36068 ft | 466 kts | 201° |
| 2026-05-04 18:11 | 46.63530 | 20.33669 | 36068 ft | 466 kts | 201° |
| 2026-05-04 18:11 | 46.57407 | 20.30494 | 36069 ft | 466 kts | 201° |
| 2026-05-04 18:12 | 46.51280 | 20.27325 | 36066 ft | 466 kts | 201° |
| 2026-05-04 18:12 | 46.45179 | 20.24178 | 36069 ft | 467 kts | 201° |
| 2026-05-04 18:13 | 46.39062 | 20.21029 | 36068 ft | 467 kts | 201° |
| 2026-05-04 18:14 | 46.29866 | 20.16308 | 36069 ft | 467 kts | 201° |
| 2026-05-04 18:14 | 46.23759 | 20.13183 | 36066 ft | 467 kts | 201° |
| 2026-05-04 18:15 | 46.11097 | 20.09049 | 36064 ft | 469 kts | 186° |
| 2026-05-04 18:16 | 46.04598 | 20.08472 | 36068 ft | 470 kts | 184° |
| 2026-05-04 18:16 | 45.98061 | 20.07982 | 36064 ft | 470 kts | 184° |
| 2026-05-04 18:17 | 45.88237 | 20.07222 | 36065 ft | 471 kts | 184° |
| 2026-05-04 18:18 | 45.78434 | 20.06457 | 36062 ft | 471 kts | 184° |
| 2026-05-04 18:18 | 45.71912 | 20.05949 | 36070 ft | 471 kts | 184° |
| 2026-05-04 18:19 | 45.62049 | 20.05181 | 36066 ft | 471 kts | 184° |
| 2026-05-04 18:19 | 45.55591 | 20.04681 | 36067 ft | 471 kts | 184° |
| 2026-05-04 18:20 | 45.49297 | 20.04194 | 36072 ft | 471 kts | 184° |
| 2026-05-04 18:20 | 45.42754 | 20.03690 | 36079 ft | 472 kts | 184° |
| 2026-05-04 18:21 | 45.36250 | 20.03189 | 36078 ft | 471 kts | 184° |
| 2026-05-04 18:21 | 45.29678 | 20.02684 | 36081 ft | 472 kts | 184° |
| 2026-05-04 18:22 | 45.23120 | 20.02180 | 36087 ft | 472 kts | 184° |
| 2026-05-04 18:22 | 45.16594 | 20.01682 | 36084 ft | 472 kts | 184° |
| 2026-05-04 18:23 | 45.10019 | 20.01180 | 36081 ft | 472 kts | 184° |
| 2026-05-04 18:23 | 45.03464 | 20.00682 | 36085 ft | 472 kts | 184° |
| 2026-05-04 18:24 | 44.96957 | 20.00188 | 36087 ft | 472 kts | 184° |
| 2026-05-04 18:24 | 44.90405 | 19.99692 | 36094 ft | 473 kts | 184° |
| 2026-05-04 18:25 | 44.83840 | 19.99196 | 36091 ft | 473 kts | 184° |
| 2026-05-04 18:25 | 44.77242 | 19.98696 | 36091 ft | 474 kts | 184° |
| 2026-05-04 18:26 | 44.70696 | 19.98203 | 36090 ft | 474 kts | 184° |
| 2026-05-04 18:26 | 44.64090 | 19.97708 | 36092 ft | 474 kts | 184° |
| 2026-05-04 18:27 | 44.57545 | 19.97216 | 36092 ft | 474 kts | 184° |
| 2026-05-04 18:27 | 44.50944 | 19.96722 | 36276 ft | 476 kts | 184° |
| 2026-05-04 18:28 | 44.47643 | 19.96477 | 36556 ft | 474 kts | 184° |
| 2026-05-04 18:28 | 44.44337 | 19.96262 | 36870 ft | 472 kts | 183° |
| 2026-05-04 18:28 | 44.41069 | 19.96073 | 37096 ft | 472 kts | 183° |
| 2026-05-04 18:28 | 44.37788 | 19.95888 | 37094 ft | 471 kts | 183° |
| 2026-05-04 18:29 | 44.31214 | 19.95510 | 37099 ft | 471 kts | 183° |
| 2026-05-04 18:29 | 44.24700 | 19.95132 | 37107 ft | 471 kts | 183° |
| 2026-05-04 18:30 | 44.14875 | 19.94580 | 37111 ft | 471 kts | 182° |
| 2026-05-04 18:31 | 44.08293 | 19.94404 | 37119 ft | 472 kts | 182° |
| 2026-05-04 18:31 | 44.01749 | 19.94246 | 37125 ft | 472 kts | 182° |
| 2026-05-04 18:32 | 43.95177 | 19.94084 | 37130 ft | 471 kts | 182° |
| 2026-05-04 18:32 | 43.88620 | 19.93920 | 37132 ft | 471 kts | 182° |
| 2026-05-04 18:33 | 43.82073 | 19.93754 | 37135 ft | 472 kts | 182° |
| 2026-05-04 18:33 | 43.75479 | 19.93587 | 37132 ft | 473 kts | 182° |
| 2026-05-04 18:34 | 43.68921 | 19.93423 | 37138 ft | 473 kts | 182° |
| 2026-05-04 18:34 | 43.62282 | 19.93256 | 37147 ft | 473 kts | 182° |
| 2026-05-04 18:35 | 43.55729 | 19.93091 | 37151 ft | 473 kts | 182° |
| 2026-05-04 18:35 | 43.49139 | 19.92927 | 37164 ft | 474 kts | 182° |
| 2026-05-04 18:36 | 43.42558 | 19.92764 | 37175 ft | 474 kts | 182° |
| 2026-05-04 18:36 | 43.35993 | 19.92600 | 37163 ft | 474 kts | 182° |
| 2026-05-04 18:37 | 43.29353 | 19.92434 | 37167 ft | 474 kts | 182° |
| 2026-05-04 18:37 | 43.22799 | 19.92272 | 37165 ft | 474 kts | 182° |
| 2026-05-04 18:38 | 43.16186 | 19.92109 | 37170 ft | 474 kts | 182° |
| 2026-05-04 18:38 | 43.09604 | 19.91946 | 37161 ft | 474 kts | 182° |
| 2026-05-04 18:39 | 43.02983 | 19.91782 | 37167 ft | 475 kts | 182° |
| 2026-05-04 18:39 | 42.96386 | 19.91621 | 37180 ft | 475 kts | 182° |
| 2026-05-04 18:40 | 42.89768 | 19.91460 | 37184 ft | 475 kts | 182° |
| 2026-05-04 18:40 | 42.83151 | 19.91297 | 37185 ft | 475 kts | 182° |
| 2026-05-04 18:41 | 42.76545 | 19.91135 | 37188 ft | 475 kts | 182° |
| 2026-05-04 18:41 | 42.69927 | 19.90974 | 37196 ft | 475 kts | 182° |
| 2026-05-04 18:42 | 42.63340 | 19.90814 | 37189 ft | 476 kts | 182° |
| 2026-05-04 18:42 | 42.56752 | 19.90655 | 37193 ft | 476 kts | 182° |
| 2026-05-04 18:43 | 42.50131 | 19.90494 | 37198 ft | 475 kts | 182° |
| 2026-05-04 18:43 | 42.43492 | 19.90333 | 37188 ft | 476 kts | 182° |
| 2026-05-04 18:44 | 42.36913 | 19.90175 | 37178 ft | 476 kts | 182° |
| 2026-05-04 18:44 | 42.30276 | 19.90015 | 37173 ft | 476 kts | 182° |
| 2026-05-04 18:45 | 42.23683 | 19.89858 | 37162 ft | 477 kts | 183° |
| 2026-05-04 18:45 | 42.17035 | 19.89698 | 37158 ft | 476 kts | 182° |
| 2026-05-04 18:46 | 42.10409 | 19.89539 | 37154 ft | 477 kts | 183° |
| 2026-05-04 18:46 | 42.03808 | 19.89382 | 37140 ft | 477 kts | 183° |
| 2026-05-04 18:47 | 41.97150 | 19.89225 | 37139 ft | 477 kts | 183° |
| 2026-05-04 18:47 | 41.90512 | 19.89065 | 37146 ft | 477 kts | 183° |
| 2026-05-04 18:48 | 41.83911 | 19.88909 | 37146 ft | 478 kts | 183° |
| 2026-05-04 18:48 | 41.77258 | 19.88751 | 37138 ft | 478 kts | 183° |
| 2026-05-04 18:49 | 41.70602 | 19.88595 | 37141 ft | 479 kts | 183° |
| 2026-05-04 18:49 | 41.63954 | 19.88439 | 37140 ft | 479 kts | 183° |
| 2026-05-04 18:50 | 41.57260 | 19.88281 | 37144 ft | 480 kts | 183° |
| 2026-05-04 18:50 | 41.50602 | 19.88125 | 37148 ft | 480 kts | 183° |
| 2026-05-04 18:51 | 41.43911 | 19.87969 | 37142 ft | 480 kts | 184° |
| 2026-05-04 18:51 | 41.37226 | 19.87813 | 37140 ft | 481 kts | 183° |
| 2026-05-04 18:52 | 41.30538 | 19.87655 | 37138 ft | 481 kts | 184° |
| 2026-05-04 18:52 | 41.23904 | 19.87503 | 36973 ft | 477 kts | 184° |
| 2026-05-04 18:52 | 41.20566 | 19.87425 | 36406 ft | 474 kts | 184° |
| 2026-05-04 18:53 | 41.17280 | 19.87348 | 35826 ft | 474 kts | 184° |
| 2026-05-04 18:53 | 41.13994 | 19.87271 | 35231 ft | 475 kts | 184° |
| 2026-05-04 18:53 | 41.10704 | 19.87194 | 34585 ft | 476 kts | 184° |
| 2026-05-04 18:53 | 41.07409 | 19.87117 | 33840 ft | 478 kts | 184° |
| 2026-05-04 18:54 | 41.04050 | 19.87039 | 33053 ft | 481 kts | 184° |
| 2026-05-04 18:54 | 41.00710 | 19.86961 | 32255 ft | 483 kts | 184° |
| 2026-05-04 18:54 | 40.97379 | 19.86883 | 31447 ft | 485 kts | 183° |
| 2026-05-04 18:54 | 40.94008 | 19.86805 | 30630 ft | 486 kts | 183° |
| 2026-05-04 18:55 | 40.90647 | 19.86728 | 29886 ft | 486 kts | 183° |
| 2026-05-04 18:55 | 40.83963 | 19.86577 | 28831 ft | 475 kts | 183° |
| 2026-05-04 18:55 | 40.80657 | 19.86501 | 28249 ft | 471 kts | 183° |
| 2026-05-04 18:56 | 40.77394 | 19.86426 | 27661 ft | 468 kts | 183° |
| 2026-05-04 18:56 | 40.74181 | 19.86353 | 27098 ft | 465 kts | 183° |
| 2026-05-04 18:56 | 40.70988 | 19.86279 | 26543 ft | 461 kts | 183° |
| 2026-05-04 18:56 | 40.67767 | 19.86205 | 25974 ft | 458 kts | 183° |
| 2026-05-04 18:57 | 40.64616 | 19.86133 | 25424 ft | 454 kts | 183° |
| 2026-05-04 18:57 | 40.61455 | 19.86061 | 24886 ft | 451 kts | 182° |
| 2026-05-04 18:57 | 40.58343 | 19.85990 | 24351 ft | 447 kts | 182° |
| 2026-05-04 18:57 | 40.55255 | 19.85919 | 23827 ft | 443 kts | 182° |
| 2026-05-04 18:58 | 40.52196 | 19.85849 | 23301 ft | 440 kts | 182° |
| 2026-05-04 18:58 | 40.49139 | 19.85781 | 22788 ft | 437 kts | 182° |
| 2026-05-04 18:58 | 40.46159 | 19.85714 | 22290 ft | 433 kts | 182° |
| 2026-05-04 18:58 | 40.43155 | 19.85645 | 21792 ft | 429 kts | 182° |
| 2026-05-04 18:59 | 40.40168 | 19.85576 | 21288 ft | 426 kts | 182° |
| 2026-05-04 18:59 | 40.37207 | 19.85508 | 20772 ft | 424 kts | 182° |
| 2026-05-04 18:59 | 40.34292 | 19.85443 | 20282 ft | 420 kts | 182° |
| 2026-05-04 18:59 | 40.31384 | 19.85376 | 19805 ft | 417 kts | 182° |
| 2026-05-04 19:00 | 40.28498 | 19.85311 | 19316 ft | 414 kts | 182° |
| 2026-05-04 19:00 | 40.25657 | 19.85247 | 18833 ft | 411 kts | 182° |
| 2026-05-04 19:00 | 40.22819 | 19.85182 | 18351 ft | 408 kts | 182° |
| 2026-05-04 19:00 | 40.19976 | 19.85119 | 17856 ft | 405 kts | 182° |
| 2026-05-04 19:01 | 40.17183 | 19.85057 | 17463 ft | 400 kts | 182° |
| 2026-05-04 19:01 | 40.14422 | 19.84996 | 17038 ft | 398 kts | 182° |
| 2026-05-04 19:01 | 40.11669 | 19.84933 | 16575 ft | 396 kts | 182° |
| 2026-05-04 19:01 | 40.08911 | 19.84871 | 16103 ft | 395 kts | 182° |
| 2026-05-04 19:02 | 40.06160 | 19.84808 | 15622 ft | 393 kts | 181° |
| 2026-05-04 19:02 | 40.03433 | 19.84747 | 15142 ft | 392 kts | 181° |
| 2026-05-04 19:02 | 40.00748 | 19.84687 | 14663 ft | 390 kts | 181° |
| 2026-05-04 19:02 | 39.98038 | 19.84626 | 14192 ft | 388 kts | 181° |
| 2026-05-04 19:03 | 39.95339 | 19.84565 | 13731 ft | 386 kts | 181° |
| 2026-05-04 19:03 | 39.92664 | 19.84505 | 13256 ft | 383 kts | 181° |
| 2026-05-04 19:03 | 39.90034 | 19.84446 | 12821 ft | 380 kts | 181° |
| 2026-05-04 19:03 | 39.87403 | 19.84258 | 12404 ft | 375 kts | 186° |
| 2026-05-04 19:04 | 39.84839 | 19.83814 | 11969 ft | 371 kts | 190° |
| 2026-05-04 19:04 | 39.82317 | 19.83237 | 11529 ft | 368 kts | 191° |
| 2026-05-04 19:04 | 39.79783 | 19.82634 | 11081 ft | 365 kts | 191° |
| 2026-05-04 19:04 | 39.77317 | 19.82048 | 10674 ft | 360 kts | 191° |
| 2026-05-04 19:05 | 39.74882 | 19.81474 | 10477 ft | 348 kts | 191° |
| 2026-05-04 19:05 | 39.72565 | 19.80931 | 10349 ft | 335 kts | 191° |
| 2026-05-04 19:05 | 39.70320 | 19.80409 | 10217 ft | 322 kts | 191° |
| 2026-05-04 19:05 | 39.68133 | 19.79901 | 10009 ft | 313 kts | 191° |
| 2026-05-04 19:06 | 39.66011 | 19.79409 | 9652 ft | 310 kts | 191° |
| 2026-05-04 19:06 | 39.63907 | 19.78922 | 9286 ft | 307 kts | 191° |
| 2026-05-04 19:06 | 39.61816 | 19.78437 | 8934 ft | 304 kts | 190° |
| 2026-05-04 19:06 | 39.59729 | 19.77953 | 8587 ft | 301 kts | 190° |
| 2026-05-04 19:07 | 39.57678 | 19.77478 | 8242 ft | 298 kts | 190° |
| 2026-05-04 19:07 | 39.55645 | 19.77008 | 7902 ft | 294 kts | 190° |
| 2026-05-04 19:07 | 39.53644 | 19.76545 | 7574 ft | 292 kts | 190° |
| 2026-05-04 19:07 | 39.51669 | 19.76088 | 7245 ft | 289 kts | 190° |
| 2026-05-04 19:08 | 39.49697 | 19.75633 | 6916 ft | 286 kts | 189° |
| 2026-05-04 19:08 | 39.47733 | 19.75180 | 6584 ft | 283 kts | 189° |
| 2026-05-04 19:08 | 39.45818 | 19.74739 | 6268 ft | 280 kts | 189° |
| 2026-05-04 19:08 | 39.43891 | 19.74305 | 5933 ft | 278 kts | 187° |
| 2026-05-04 19:09 | 39.42000 | 19.74470 | 5574 ft | 274 kts | 158° |
| 2026-05-04 19:09 | 39.40508 | 19.75861 | 5240 ft | 267 kts | 126° |
| 2026-05-04 19:09 | 39.39739 | 19.78005 | 4884 ft | 261 kts | 98° |
| 2026-05-04 19:09 | 39.39704 | 19.80302 | 4569 ft | 257 kts | 86° |
| 2026-05-04 19:10 | 39.39789 | 19.82602 | 4239 ft | 256 kts | 86° |
| 2026-05-04 19:10 | 39.39857 | 19.84903 | 3918 ft | 255 kts | 86° |
| 2026-05-04 19:10 | 39.39975 | 19.87181 | 3602 ft | 253 kts | 81° |
| 2026-05-04 19:10 | 39.40329 | 19.89396 | 3278 ft | 251 kts | 73° |
| 2026-05-04 19:11 | 39.40807 | 19.91528 | 3077 ft | 244 kts | 72° |
| 2026-05-04 19:11 | 39.41278 | 19.93554 | 3044 ft | 230 kts | 72° |
| 2026-05-04 19:11 | 39.41731 | 19.95489 | 2991 ft | 216 kts | 69° |
| 2026-05-04 19:11 | 39.42496 | 19.97050 | 2895 ft | 200 kts | 36° |
| 2026-05-04 19:12 | 39.43728 | 19.97631 | 2978 ft | 185 kts | 0° |
| 2026-05-04 19:12 | 39.46062 | 19.96387 | 2644 ft | 182 kts | 330° |
| 2026-05-04 19:12 | 39.47154 | 19.95544 | 2418 ft | 176 kts | 330° |
| 2026-05-04 19:13 | 39.48189 | 19.94781 | 2204 ft | 171 kts | 334° |
| 2026-05-04 19:13 | 39.49283 | 19.94201 | 1981 ft | 170 kts | 341° |
| 2026-05-04 19:13 | 39.50414 | 19.93775 | 1754 ft | 169 kts | 345° |
| 2026-05-04 19:13 | 39.51574 | 19.93426 | 1528 ft | 169 kts | 348° |
| 2026-05-04 19:14 | 39.52725 | 19.93133 | 1306 ft | 169 kts | 349° |
| 2026-05-04 19:14 | 39.53851 | 19.92852 | 1072 ft | 159 kts | 349° |
| 2026-05-04 19:14 | 39.54888 | 19.92585 | 875 ft | 143 kts | 349° |
| 2026-05-04 19:14 | 39.55859 | 19.92334 | 709 ft | 142 kts | 349° |
| 2026-05-04 19:15 | 39.56827 | 19.92094 | 502 ft | 141 kts | 349° |
| 2026-05-04 19:15 | 39.57781 | 19.91847 | 334 ft | 141 kts | 349° |
| 2026-05-04 19:15 | 39.58739 | 19.91597 | 162 ft | 141 kts | 348° |
| 2026-05-04 19:15 | 39.59699 | 19.91342 | 10 ft | 132 kts | 349° |
| 2026-05-04 19:16 | 39.60344 | 19.91175 | 6 ft | 51 kts | 349° |
| 2026-05-04 19:16 | 39.60551 | 19.91177 | 6 ft | 17 kts | 20° |
| 2026-05-04 19:16 | 39.60593 | 19.91212 | 6 ft | 3 kts | 48° |
| 2026-05-04 19:16 | 39.60607 | 19.91241 | 6 ft | 4 kts | 82° |
| 2026-05-04 19:17 | 39.60616 | 19.91290 | 6 ft | 7 kts | 75° |
| 2026-05-04 19:17 | 39.60626 | 19.91345 | 6 ft | 6 kts | 79° |
| 2026-05-04 19:17 | 39.60629 | 19.91368 | 6 ft | 0 kts | 78° |